createdAt,value
2023-03-06T00:02:13.286Z,94198.00
2023-03-06T00:06:13.297Z,94192.00
2023-03-06T00:10:13.198Z,94194.00
2023-03-06T00:14:13.140Z,94196.00
2023-03-06T00:18:13.110Z,94194.00
2023-03-06T00:22:13.122Z,94190.00
2023-03-06T00:26:13.252Z,94188.00
2023-03-06T00:30:13.445Z,94188.00
2023-03-06T00:34:13.470Z,94186.00
2023-03-06T00:38:13.355Z,94184.00
2023-03-06T00:42:13.346Z,94179.00
2023-03-06T00:46:13.547Z,94177.00
2023-03-06T00:50:13.478Z,94171.00
2023-03-06T00:54:13.468Z,94167.00
2023-03-06T00:58:13.412Z,94163.00
2023-03-06T01:02:13.352Z,94165.00
2023-03-06T01:06:13.329Z,94157.00
2023-03-06T01:10:13.217Z,94153.00
2023-03-06T01:14:13.059Z,94149.00
2023-03-06T01:18:13.064Z,94139.00
2023-03-06T01:22:13.206Z,94128.00
2023-03-06T01:26:13.368Z,94126.00
2023-03-06T01:30:13.503Z,94120.00
2023-03-06T01:34:13.686Z,94116.00
2023-03-06T01:38:13.877Z,94112.00
2023-03-06T01:42:14.001Z,94110.00
2023-03-06T01:46:14.224Z,94108.00
2023-03-06T01:50:14.343Z,94102.00
2023-03-06T01:54:14.538Z,94094.00
2023-03-06T01:58:14.766Z,94088.00
2023-03-06T02:02:14.995Z,94082.00
2023-03-06T02:06:15.157Z,94077.00
2023-03-06T02:10:15.276Z,94073.00
2023-03-06T02:14:15.511Z,94069.00
2023-03-06T02:18:15.586Z,94067.00
2023-03-06T02:22:15.684Z,94063.00
2023-03-06T02:26:15.795Z,94057.00
2023-03-06T02:30:15.972Z,94053.00
2023-03-06T02:34:16.126Z,94049.00
2023-03-06T02:38:16.317Z,94045.00
2023-03-06T02:42:16.397Z,94037.00
2023-03-06T02:46:16.515Z,94034.00
2023-03-06T02:50:16.666Z,94028.00
2023-03-06T02:54:16.788Z,94026.00
2023-03-06T02:58:16.865Z,94016.00
2023-03-06T03:02:16.983Z,94012.00
2023-03-06T03:06:17.122Z,94006.00
2023-03-06T03:10:17.232Z,94004.00
2023-03-06T03:14:17.322Z,93998.00
2023-03-06T03:18:17.475Z,93996.00
2023-03-06T03:22:17.521Z,93992.00
2023-03-06T03:26:17.714Z,93985.00
2023-03-06T03:30:17.719Z,93981.00
2023-03-06T03:34:17.779Z,93975.00
2023-03-06T03:38:17.812Z,93975.00
2023-03-06T03:42:17.852Z,93965.00
2023-03-06T03:46:17.927Z,93961.00
2023-03-06T03:50:17.980Z,93955.00
2023-03-06T03:54:18.056Z,93947.00
2023-03-06T03:58:18.106Z,93941.00
2023-03-06T04:02:18.378Z,93936.00
2023-03-06T04:06:18.270Z,93930.00
2023-03-06T04:10:18.386Z,93924.00
2023-03-06T04:14:18.434Z,93922.00
2023-03-06T04:18:18.520Z,93924.00
2023-03-06T04:22:18.631Z,93914.00
2023-03-06T04:26:18.776Z,93912.00
2023-03-06T04:30:18.889Z,93910.00
2023-03-06T04:34:19.080Z,93910.00
2023-03-06T04:38:19.228Z,93900.00
2023-03-06T04:42:19.346Z,93902.00
2023-03-06T04:46:19.483Z,93902.00
2023-03-06T04:50:19.656Z,93898.00
2023-03-06T04:54:19.817Z,93900.00
2023-03-06T04:58:20.031Z,93893.00
2023-03-06T05:02:20.029Z,93894.00
2023-03-06T05:06:19.979Z,93889.00
2023-03-06T05:10:19.912Z,93885.00
2023-03-06T05:14:20.381Z,93881.00
2023-03-06T05:18:19.827Z,93871.00
2023-03-06T05:22:19.783Z,93865.00
2023-03-06T05:26:19.771Z,93865.00
2023-03-06T05:30:19.726Z,93867.00
2023-03-06T05:34:19.689Z,93869.00
2023-03-06T05:38:19.678Z,93865.00
2023-03-06T05:42:19.823Z,93871.00
2023-03-06T05:46:20.056Z,93869.00
2023-03-06T05:50:20.396Z,93871.00
2023-03-06T05:54:19.899Z,93879.00
2023-03-06T05:58:19.883Z,93879.00
2023-03-06T06:02:19.886Z,93871.00
2023-03-06T06:06:19.807Z,93879.00
2023-03-06T06:10:19.776Z,93871.00
2023-03-06T06:14:19.737Z,93883.00
2023-03-06T06:18:19.671Z,93887.00
2023-03-06T06:22:19.647Z,93889.00
2023-03-06T06:26:19.870Z,93891.00
2023-03-06T06:30:20.039Z,93889.00
2023-03-06T06:34:20.253Z,93891.00
2023-03-06T06:38:20.891Z,93891.00
2023-03-06T06:42:31.960Z,93871.00
2023-03-06T06:46:59.252Z,93889.00
2023-03-06T06:50:21.580Z,93891.00
2023-03-06T06:54:20.985Z,93889.00
2023-03-06T06:58:20.891Z,93900.00
2023-03-06T07:02:20.919Z,93893.00
2023-03-06T07:06:20.423Z,93896.00
2023-03-06T07:10:21.225Z,93896.00
2023-03-06T07:14:20.417Z,93894.00
2023-03-06T07:18:20.303Z,93894.00
2023-03-06T07:22:20.249Z,93894.00
2023-03-06T07:26:20.210Z,93900.00
2023-03-06T07:30:20.409Z,93898.00
2023-03-06T07:34:20.595Z,93904.00
2023-03-06T07:38:20.748Z,93906.00
2023-03-06T07:42:20.860Z,93910.00
2023-03-06T07:46:21.502Z,93910.00
2023-03-06T07:50:21.426Z,93916.00
2023-03-06T07:54:21.245Z,93916.00
2023-03-06T07:58:21.413Z,93912.00
2023-03-06T08:02:21.388Z,93912.00
2023-03-06T08:06:21.501Z,93914.00
2023-03-06T08:10:21.616Z,93916.00
2023-03-06T08:14:21.733Z,93912.00
2023-03-06T08:18:21.921Z,93908.00
2023-03-06T08:22:22.428Z,93912.00
2023-03-06T08:26:22.069Z,93910.00
2023-03-06T08:30:22.109Z,93910.00
2023-03-06T08:34:22.427Z,93914.00
2023-03-06T08:38:22.309Z,93914.00
2023-03-06T08:42:22.385Z,93910.00
2023-03-06T08:46:22.953Z,93912.00
2023-03-06T08:50:22.925Z,93916.00
2023-03-06T08:54:22.963Z,93918.00
2023-03-06T08:58:22.563Z,93912.00
2023-03-06T09:02:23.003Z,93918.00
2023-03-06T09:06:22.636Z,93910.00
2023-03-06T09:10:22.742Z,93910.00
2023-03-06T09:14:22.745Z,93912.00
2023-03-06T09:18:22.852Z,93906.00
2023-03-06T09:22:22.907Z,93900.00
2023-03-06T09:26:28.068Z,93908.00
2023-03-06T09:30:23.959Z,93902.00
2023-03-06T09:34:22.902Z,93908.00
2023-03-06T09:38:22.991Z,93900.00
2023-03-06T09:42:23.006Z,93902.00
2023-03-06T09:46:23.190Z,93896.00
2023-03-06T09:50:23.482Z,93893.00
2023-03-06T09:54:23.456Z,93887.00
2023-03-06T09:58:23.471Z,93883.00
2023-03-06T10:02:24.046Z,93887.00
2023-03-06T10:06:23.794Z,93881.00
2023-03-06T10:10:23.936Z,93867.00
2023-03-06T10:14:24.066Z,93869.00
2023-03-06T10:18:24.446Z,93867.00
2023-03-06T10:22:24.175Z,93861.00
2023-03-06T10:26:24.571Z,93859.00
2023-03-06T10:30:24.240Z,93851.00
2023-03-06T10:34:24.496Z,93851.00
2023-03-06T10:38:24.500Z,93842.00
2023-03-06T10:42:24.447Z,93836.00
2023-03-06T10:46:24.490Z,93834.00
2023-03-06T10:50:25.041Z,93822.00
2023-03-06T10:54:24.997Z,93808.00
2023-03-06T10:58:24.668Z,93793.00
2023-03-06T11:02:24.990Z,93787.00
2023-03-06T11:06:24.858Z,93779.00
2023-03-06T11:10:25.504Z,93777.00
2023-03-06T11:14:27.604Z,93765.00
2023-03-06T11:18:24.983Z,93771.00
2023-03-06T11:22:25.007Z,93754.00
2023-03-06T11:26:24.983Z,93749.00
2023-03-06T11:30:24.903Z,93744.00
2023-03-06T11:34:25.001Z,93730.00
2023-03-06T11:38:25.037Z,93724.00
2023-03-06T11:42:25.018Z,93720.00
2023-03-06T11:46:24.847Z,93712.00
2023-03-06T11:50:24.695Z,93699.00
2023-03-06T11:54:24.984Z,93693.00
2023-03-06T11:58:24.631Z,93691.00
2023-03-06T12:02:24.673Z,93677.00
2023-03-06T12:06:24.996Z,93673.00
2023-03-06T12:10:24.587Z,93669.00
2023-03-06T12:14:24.491Z,93667.00
2023-03-06T12:18:26.055Z,93661.00
2023-03-06T12:22:24.421Z,93661.00
2023-03-06T12:26:24.517Z,93663.00
2023-03-06T12:30:24.529Z,93659.00
2023-03-06T12:34:25.013Z,93657.00
2023-03-06T12:38:24.729Z,93648.00
2023-03-06T12:42:25.009Z,93646.00
2023-03-06T12:46:25.165Z,93642.00
2023-03-06T12:50:25.535Z,93634.00
2023-03-06T12:54:25.401Z,93636.00
2023-03-06T12:58:25.568Z,93630.00
2023-03-06T13:02:25.755Z,93622.00
2023-03-06T13:06:25.901Z,93628.00
2023-03-06T13:10:26.040Z,93611.00
2023-03-06T13:14:26.206Z,93605.00
2023-03-06T13:18:26.361Z,93603.00
2023-03-06T13:22:26.553Z,93605.00
2023-03-06T13:26:27.039Z,93605.00
2023-03-06T13:30:26.849Z,93603.00
2023-03-06T13:34:27.008Z,93595.00
2023-03-06T13:38:27.178Z,93599.00
2023-03-06T13:42:27.367Z,93595.00
2023-03-06T13:46:27.551Z,93589.00
2023-03-06T13:50:27.652Z,93587.00
2023-03-06T13:54:27.840Z,93587.00
2023-03-06T13:58:27.978Z,93589.00
2023-03-06T14:02:28.123Z,93589.00
2023-03-06T14:06:28.306Z,93591.00
2023-03-06T14:10:28.465Z,93597.00
2023-03-06T14:14:28.612Z,93591.00
2023-03-06T14:18:28.753Z,93603.00
2023-03-06T14:22:28.937Z,93595.00
2023-03-06T14:26:29.070Z,93593.00
2023-03-06T14:30:29.246Z,93597.00
2023-03-06T14:34:29.473Z,93603.00
2023-03-06T14:38:29.578Z,93603.00
2023-03-06T14:42:29.721Z,93607.00
2023-03-06T14:46:29.886Z,93607.00
2023-03-06T14:50:29.991Z,93611.00
2023-03-06T14:54:30.137Z,93607.00
2023-03-06T14:58:30.252Z,93615.00
2023-03-06T15:02:30.403Z,93611.00
2023-03-06T15:06:30.579Z,93613.00
2023-03-06T15:10:30.606Z,93624.00
2023-03-06T15:14:30.676Z,93622.00
2023-03-06T15:18:30.769Z,93630.00
2023-03-06T15:22:31.133Z,93628.00
2023-03-06T15:26:30.998Z,93630.00
2023-03-06T15:30:31.106Z,93640.00
2023-03-06T15:34:31.174Z,93642.00
2023-03-06T15:38:31.344Z,93644.00
2023-03-06T15:42:31.508Z,93648.00
2023-03-06T15:46:31.559Z,93648.00
2023-03-06T15:50:31.641Z,93646.00
2023-03-06T15:54:32.993Z,93646.00
2023-03-06T15:58:31.940Z,93653.00
2023-03-06T16:02:32.040Z,93653.00
2023-03-06T16:06:32.218Z,93655.00
2023-03-06T16:10:32.363Z,93653.00
2023-03-06T16:14:32.539Z,93657.00
2023-03-06T16:18:32.715Z,93665.00
2023-03-06T16:22:32.923Z,93667.00
2023-03-06T16:26:33.139Z,93665.00
2023-03-06T16:30:33.378Z,93675.00
2023-03-06T16:34:33.562Z,93677.00
2023-03-06T16:38:33.734Z,93679.00
2023-03-06T16:42:33.969Z,93679.00
2023-03-06T16:46:34.188Z,93683.00
2023-03-06T16:50:34.325Z,93691.00
2023-03-06T16:54:34.425Z,93697.00
2023-03-06T16:58:34.457Z,93699.00
2023-03-06T17:02:34.516Z,93708.00
2023-03-06T17:06:34.575Z,93706.00
2023-03-06T17:10:34.591Z,93714.00
2023-03-06T17:14:34.631Z,93720.00
2023-03-06T17:18:34.624Z,93724.00
2023-03-06T17:22:34.680Z,93728.00
2023-03-06T17:26:34.742Z,93730.00
2023-03-06T17:30:34.735Z,93738.00
2023-03-06T17:34:34.824Z,93742.00
2023-03-06T17:38:34.887Z,93746.00
2023-03-06T17:42:34.931Z,93752.00
2023-03-06T17:46:35.054Z,93755.00
2023-03-06T17:50:35.072Z,93759.00
2023-03-06T17:54:35.149Z,93763.00
2023-03-06T17:58:35.233Z,93763.00
2023-03-06T18:02:35.326Z,93767.00
2023-03-06T18:06:35.390Z,93769.00
2023-03-06T18:10:35.459Z,93773.00
2023-03-06T18:14:35.529Z,93775.00
2023-03-06T18:18:35.600Z,93785.00
2023-03-06T18:22:35.751Z,93783.00
2023-03-06T18:26:35.878Z,93783.00
2023-03-06T18:30:35.986Z,93781.00
2023-03-06T18:34:36.677Z,93783.00
2023-03-06T18:38:36.190Z,93789.00
2023-03-06T18:42:36.355Z,93799.00
2023-03-06T18:46:36.485Z,93795.00
2023-03-06T18:50:36.619Z,93799.00
2023-03-06T18:54:36.739Z,93797.00
2023-03-06T18:58:36.932Z,93801.00
2023-03-06T19:02:37.068Z,93806.00
2023-03-06T19:06:37.175Z,93808.00
2023-03-06T19:10:37.347Z,93816.00
2023-03-06T19:14:37.509Z,93822.00
2023-03-06T19:18:37.738Z,93826.00
2023-03-06T19:22:37.875Z,93830.00
2023-03-06T19:26:38.021Z,93830.00
2023-03-06T19:30:38.210Z,93826.00
2023-03-06T19:34:38.393Z,93832.00
2023-03-06T19:38:38.582Z,93834.00
2023-03-06T19:42:38.750Z,93838.00
2023-03-06T19:46:38.900Z,93844.00
2023-03-06T19:50:39.094Z,93848.00
2023-03-06T19:54:39.320Z,93848.00
2023-03-06T19:58:39.484Z,93857.00
2023-03-06T20:02:39.720Z,93848.00
2023-03-06T20:06:39.901Z,93851.00
2023-03-06T20:10:40.105Z,93849.00
2023-03-06T20:14:40.298Z,93851.00
2023-03-06T20:18:40.524Z,93853.00
2023-03-06T20:22:40.484Z,93851.00
2023-03-06T20:26:40.487Z,93859.00
2023-03-06T20:30:40.403Z,93867.00
2023-03-06T20:34:40.379Z,93867.00
2023-03-06T20:38:40.317Z,93869.00
2023-03-06T20:42:40.269Z,93879.00
2023-03-06T20:46:40.326Z,93885.00
2023-03-06T20:50:40.220Z,93887.00
2023-03-06T20:54:40.164Z,93891.00
2023-03-06T20:58:40.098Z,93891.00
2023-03-06T21:02:40.115Z,93891.00
2023-03-06T21:06:40.309Z,93894.00
2023-03-06T21:10:40.495Z,93891.00
2023-03-06T21:14:40.655Z,93889.00
2023-03-06T21:18:40.915Z,93887.00
2023-03-06T21:22:41.026Z,93881.00
2023-03-06T21:26:41.188Z,93881.00
2023-03-06T21:30:41.316Z,93879.00
2023-03-06T21:34:41.374Z,93871.00
2023-03-06T21:38:41.484Z,93869.00
2023-03-06T21:42:42.270Z,93869.00
2023-03-06T21:46:41.625Z,93865.00
2023-03-06T21:50:41.675Z,93863.00
2023-03-06T21:54:41.704Z,93859.00
2023-03-06T21:58:41.761Z,93855.00
2023-03-06T22:02:41.840Z,93851.00
2023-03-06T22:06:41.869Z,93848.00
2023-03-06T22:10:41.895Z,93848.00
2023-03-06T22:14:42.250Z,93844.00
2023-03-06T22:18:41.973Z,93848.00
2023-03-06T22:22:41.997Z,93846.00
2023-03-06T22:26:42.079Z,93844.00
2023-03-06T22:30:42.052Z,93844.00
2023-03-06T22:34:42.141Z,93840.00
2023-03-06T22:38:42.149Z,93842.00
2023-03-06T22:42:42.202Z,93846.00
2023-03-06T22:46:42.320Z,93842.00
2023-03-06T22:50:42.387Z,93834.00
2023-03-06T22:54:42.494Z,93832.00
2023-03-06T22:58:42.527Z,93830.00
2023-03-06T23:02:42.569Z,93836.00
2023-03-06T23:06:42.648Z,93832.00
2023-03-06T23:10:42.770Z,93832.00
2023-03-06T23:14:42.859Z,93830.00
2023-03-06T23:18:42.939Z,93822.00
2023-03-06T23:22:43.026Z,93822.00
2023-03-06T23:26:43.156Z,93826.00
2023-03-06T23:30:43.275Z,93820.00
2023-03-06T23:34:43.272Z,93828.00
2023-03-06T23:38:43.286Z,93822.00
2023-03-06T23:42:43.380Z,93818.00
2023-03-06T23:46:43.386Z,93822.00
2023-03-06T23:50:43.373Z,93822.00
2023-03-06T23:54:43.443Z,93816.00
2023-03-06T23:58:43.486Z,93822.00
